sensor_id;sensor_type;location;lat;lon;timestamp;pressure;altitude;pressure_sealevel;temperature
65180;BMP280;51849;47.476;8.084;2022-08-24T00:01:46;96668.59;;;16.86
65180;BMP280;51849;47.476;8.084;2022-08-24T00:04:12;96671.75;;;16.72
65180;BMP280;51849;47.476;8.084;2022-08-24T00:06:38;96666.94;;;16.57
65180;BMP280;51849;47.476;8.084;2022-08-24T00:09:05;96671.81;;;16.53
65180;BMP280;51849;47.476;8.084;2022-08-24T00:11:32;96672.34;;;16.51
65180;BMP280;51849;47.476;8.084;2022-08-24T00:14:00;96671.63;;;16.51
65180;BMP280;51849;47.476;8.084;2022-08-24T00:16:26;96670.28;;;16.57
65180;BMP280;51849;47.476;8.084;2022-08-24T00:18:52;96668.59;;;16.60
65180;BMP280;51849;47.476;8.084;2022-08-24T00:21:21;96669.31;;;16.61
65180;BMP280;51849;47.476;8.084;2022-08-24T00:23:46;96663.44;;;16.68
65180;BMP280;51849;47.476;8.084;2022-08-24T00:26:14;96669.81;;;16.72
65180;BMP280;51849;47.476;8.084;2022-08-24T00:28:40;96672.25;;;16.70
65180;BMP280;51849;47.476;8.084;2022-08-24T00:31:06;96667.28;;;16.67
65180;BMP280;51849;47.476;8.084;2022-08-24T00:33:32;96668.19;;;16.69
65180;BMP280;51849;47.476;8.084;2022-08-24T00:35:58;96664.13;;;16.68
65180;BMP280;51849;47.476;8.084;2022-08-24T00:38:24;96669.72;;;16.65
65180;BMP280;51849;47.476;8.084;2022-08-24T00:40:50;96670.28;;;16.57
65180;BMP280;51849;47.476;8.084;2022-08-24T00:43:20;96673.47;;;16.56
65180;BMP280;51849;47.476;8.084;2022-08-24T00:46:06;96672.94;;;16.44
65180;BMP280;51849;47.476;8.084;2022-08-24T00:48:38;96664.41;;;16.38
65180;BMP280;51849;47.476;8.084;2022-08-24T00:51:10;96667.66;;;16.44
65180;BMP280;51849;47.476;8.084;2022-08-24T00:53:42;96664.44;;;16.51
65180;BMP280;51849;47.476;8.084;2022-08-24T00:56:18;96664.00;;;16.47
65180;BMP280;51849;47.476;8.084;2022-08-24T00:58:52;96665.81;;;16.39
65180;BMP280;51849;47.476;8.084;2022-08-24T01:01:20;96663.91;;;16.40
65180;BMP280;51849;47.476;8.084;2022-08-24T01:03:46;96655.25;;;16.26
65180;BMP280;51849;47.476;8.084;2022-08-24T01:06:12;96654.34;;;16.24
65180;BMP280;51849;47.476;8.084;2022-08-24T01:08:39;96650.59;;;16.19
65180;BMP280;51849;47.476;8.084;2022-08-24T01:11:09;96652.59;;;16.13
65180;BMP280;51849;47.476;8.084;2022-08-24T01:13:41;96643.78;;;16.11
65180;BMP280;51849;47.476;8.084;2022-08-24T01:16:09;96649.72;;;15.98
65180;BMP280;51849;47.476;8.084;2022-08-24T01:18:36;96648.69;;;16.01
65180;BMP280;51849;47.476;8.084;2022-08-24T01:21:26;96651.47;;;15.90
65180;BMP280;51849;47.476;8.084;2022-08-24T01:23:59;96645.03;;;15.91
65180;BMP280;51849;47.476;8.084;2022-08-24T01:26:49;96651.78;;;15.87
65180;BMP280;51849;47.476;8.084;2022-08-24T01:29:21;96647.72;;;15.86
65180;BMP280;51849;47.476;8.084;2022-08-24T01:31:47;96652.59;;;15.95
65180;BMP280;51849;47.476;8.084;2022-08-24T01:34:14;96653.25;;;16.01
65180;BMP280;51849;47.476;8.084;2022-08-24T01:36:45;96658.53;;;16.01
65180;BMP280;51849;47.476;8.084;2022-08-24T01:39:24;96653.38;;;16.08
65180;BMP280;51849;47.476;8.084;2022-08-24T01:41:51;96654.22;;;16.16
65180;BMP280;51849;47.476;8.084;2022-08-24T01:44:19;96653.78;;;16.12
65180;BMP280;51849;47.476;8.084;2022-08-24T01:46:50;96653.38;;;16.08
65180;BMP280;51849;47.476;8.084;2022-08-24T01:49:27;96656.53;;;16.07
65180;BMP280;51849;47.476;8.084;2022-08-24T01:51:54;96652.03;;;16.02
65180;BMP280;51849;47.476;8.084;2022-08-24T01:54:20;96658.44;;;16.06
65180;BMP280;51849;47.476;8.084;2022-08-24T01:56:46;96649.19;;;16.00
65180;BMP280;51849;47.476;8.084;2022-08-24T01:59:15;96646.47;;;15.92
65180;BMP280;51849;47.476;8.084;2022-08-24T02:01:43;96656.06;;;15.90
65180;BMP280;51849;47.476;8.084;2022-08-24T02:04:13;96652.28;;;15.85
65180;BMP280;51849;47.476;8.084;2022-08-24T02:06:40;96652.88;;;15.78
65180;BMP280;51849;47.476;8.084;2022-08-24T02:09:06;96648.03;;;15.82
65180;BMP280;51849;47.476;8.084;2022-08-24T02:11:33;96643.19;;;15.86
65180;BMP280;51849;47.476;8.084;2022-08-24T02:14:00;96648.94;;;15.85
65180;BMP280;51849;47.476;8.084;2022-08-24T02:16:26;96645.81;;;15.86
65180;BMP280;51849;47.476;8.084;2022-08-24T02:18:54;96651.56;;;15.85
65180;BMP280;51849;47.476;8.084;2022-08-24T02:21:20;96645.19;;;15.80
65180;BMP280;51849;47.476;8.084;2022-08-24T02:23:46;96648.75;;;15.83
65180;BMP280;51849;47.476;8.084;2022-08-24T02:26:12;96652.28;;;15.85
65180;BMP280;51849;47.476;8.084;2022-08-24T02:28:40;96650.84;;;15.84
65180;BMP280;51849;47.476;8.084;2022-08-24T02:31:12;96653.84;;;15.75
65180;BMP280;51849;47.476;8.084;2022-08-24T02:33:39;96656.50;;;15.75
65180;BMP280;51849;47.476;8.084;2022-08-24T02:36:07;96662.63;;;15.65
65180;BMP280;51849;47.476;8.084;2022-08-24T02:38:34;96653.19;;;15.56
65180;BMP280;51849;47.476;8.084;2022-08-24T02:41:00;96646.69;;;15.57
65180;BMP280;51849;47.476;8.084;2022-08-24T02:43:28;96648.34;;;15.60
65180;BMP280;51849;47.476;8.084;2022-08-24T02:45:55;96657.41;;;15.59
65180;BMP280;51849;47.476;8.084;2022-08-24T02:48:21;96651.25;;;15.57
65180;BMP280;51849;47.476;8.084;2022-08-24T02:50:50;96649.59;;;15.54
65180;BMP280;51849;47.476;8.084;2022-08-24T02:53:20;96647.28;;;15.50
65180;BMP280;51849;47.476;8.084;2022-08-24T02:55:46;96648.88;;;15.53
65180;BMP280;51849;47.476;8.084;2022-08-24T02:58:14;96643.94;;;15.50
65180;BMP280;51849;47.476;8.084;2022-08-24T03:00:44;96650.81;;;15.53
65180;BMP280;51849;47.476;8.084;2022-08-24T03:03:11;96650.59;;;15.51
65180;BMP280;51849;47.476;8.084;2022-08-24T03:05:42;96649.19;;;15.50
65180;BMP280;51849;47.476;8.084;2022-08-24T03:08:10;96646.63;;;15.44
65180;BMP280;51849;47.476;8.084;2022-08-24T03:10:36;96640.94;;;15.40
65180;BMP280;51849;47.476;8.084;2022-08-24T03:13:03;96640.91;;;15.46
65180;BMP280;51849;47.476;8.084;2022-08-24T03:15:28;96637.03;;;15.28
65180;BMP280;51849;47.476;8.084;2022-08-24T03:17:56;96635.59;;;15.27
65180;BMP280;51849;47.476;8.084;2022-08-24T03:20:22;96642.50;;;15.30
65180;BMP280;51849;47.476;8.084;2022-08-24T03:22:48;96640.78;;;15.33
65180;BMP280;51849;47.476;8.084;2022-08-24T03:25:16;96638.31;;;15.40
65180;BMP280;51849;47.476;8.084;2022-08-24T03:27:43;96634.47;;;15.41
65180;BMP280;51849;47.476;8.084;2022-08-24T03:30:11;96637.78;;;15.42
65180;BMP280;51849;47.476;8.084;2022-08-24T03:32:38;96638.50;;;15.42
65180;BMP280;51849;47.476;8.084;2022-08-24T03:35:08;96629.28;;;15.36
65180;BMP280;51849;47.476;8.084;2022-08-24T03:37:34;96635.69;;;15.40
65180;BMP280;51849;47.476;8.084;2022-08-24T03:39:59;96626.72;;;15.30
65180;BMP280;51849;47.476;8.084;2022-08-24T03:42:25;96630.84;;;15.26
65180;BMP280;51849;47.476;8.084;2022-08-24T03:44:51;96630.34;;;15.27
65180;BMP280;51849;47.476;8.084;2022-08-24T03:47:17;96632.47;;;15.29
65180;BMP280;51849;47.476;8.084;2022-08-24T03:49:44;96629.72;;;15.21
65180;BMP280;51849;47.476;8.084;2022-08-24T03:52:10;96622.06;;;15.23
65180;BMP280;51849;47.476;8.084;2022-08-24T03:54:38;96627.91;;;15.11
65180;BMP280;51849;47.476;8.084;2022-08-24T03:57:06;96627.63;;;15.14
65180;BMP280;51849;47.476;8.084;2022-08-24T03:59:32;96630.31;;;15.09
65180;BMP280;51849;47.476;8.084;2022-08-24T04:01:58;96627.00;;;15.08
65180;BMP280;51849;47.476;8.084;2022-08-24T04:04:25;96627.56;;;15.01
65180;BMP280;51849;47.476;8.084;2022-08-24T04:06:52;96629.66;;;15.02
65180;BMP280;51849;47.476;8.084;2022-08-24T04:09:18;96628.94;;;15.02
65180;BMP280;51849;47.476;8.084;2022-08-24T04:11:44;96629.16;;;15.04
65180;BMP280;51849;47.476;8.084;2022-08-24T04:14:11;96628.69;;;15.06
65180;BMP280;51849;47.476;8.084;2022-08-24T04:16:38;96631.09;;;15.04
65180;BMP280;51849;47.476;8.084;2022-08-24T04:19:07;96633.78;;;14.98
65180;BMP280;51849;47.476;8.084;2022-08-24T04:21:34;96635.75;;;14.92
65180;BMP280;51849;47.476;8.084;2022-08-24T04:24:02;96633.91;;;14.87
65180;BMP280;51849;47.476;8.084;2022-08-24T04:26:29;96640.81;;;14.90
65180;BMP280;51849;47.476;8.084;2022-08-24T04:28:57;96639.56;;;14.91
65180;BMP280;51849;47.476;8.084;2022-08-24T04:31:25;96635.75;;;14.92
65180;BMP280;51849;47.476;8.084;2022-08-24T04:33:51;96642.41;;;14.93
65180;BMP280;51849;47.476;8.084;2022-08-24T04:36:19;96652.50;;;14.89
65180;BMP280;51849;47.476;8.084;2022-08-24T04:38:49;96648.69;;;14.90
65180;BMP280;51849;47.476;8.084;2022-08-24T04:41:17;96640.28;;;14.91
65180;BMP280;51849;47.476;8.084;2022-08-24T04:43:45;96641.22;;;14.94
65180;BMP280;51849;47.476;8.084;2022-08-24T04:46:13;96641.66;;;14.98
65180;BMP280;51849;47.476;8.084;2022-08-24T04:48:40;96632.94;;;15.09
65180;BMP280;51849;47.476;8.084;2022-08-24T04:51:08;96633.66;;;15.09
65180;BMP280;51849;47.476;8.084;2022-08-24T04:53:35;96643.97;;;15.07
65180;BMP280;51849;47.476;8.084;2022-08-24T04:56:01;96647.22;;;15.13
65180;BMP280;51849;47.476;8.084;2022-08-24T04:58:28;96662.56;;;15.09
65180;BMP280;51849;47.476;8.084;2022-08-24T05:00:55;96651.56;;;15.11
65180;BMP280;51849;47.476;8.084;2022-08-24T05:03:21;96657.94;;;15.15
65180;BMP280;51849;47.476;8.084;2022-08-24T05:05:50;96661.50;;;15.18
65180;BMP280;51849;47.476;8.084;2022-08-24T05:08:18;96662.44;;;15.20
65180;BMP280;51849;47.476;8.084;2022-08-24T05:10:48;96669.34;;;15.23
65180;BMP280;51849;47.476;8.084;2022-08-24T05:13:17;96670.50;;;15.28
65180;BMP280;51849;47.476;8.084;2022-08-24T05:15:46;96664.75;;;15.29
65180;BMP280;51849;47.476;8.084;2022-08-24T05:18:14;96668.19;;;15.37
65180;BMP280;51849;47.476;8.084;2022-08-24T05:20:45;96666.50;;;15.40
65180;BMP280;51849;47.476;8.084;2022-08-24T05:23:12;96673.72;;;15.39
65180;BMP280;51849;47.476;8.084;2022-08-24T05:25:38;96672.69;;;15.42
65180;BMP280;51849;47.476;8.084;2022-08-24T05:28:06;96672.91;;;15.44
65180;BMP280;51849;47.476;8.084;2022-08-24T05:30:33;96676.22;;;15.50
65180;BMP280;51849;47.476;8.084;2022-08-24T05:33:03;96676.06;;;15.61
65180;BMP280;51849;47.476;8.084;2022-08-24T05:35:38;96679.22;;;15.91
65180;BMP280;51849;47.476;8.084;2022-08-24T05:38:04;96680.03;;;16.49
65180;BMP280;51849;47.476;8.084;2022-08-24T05:40:31;96689.41;;;16.90
65180;BMP280;51849;47.476;8.084;2022-08-24T05:42:57;96680.44;;;17.32
65180;BMP280;51849;47.476;8.084;2022-08-24T05:45:23;96678.28;;;17.77
65180;BMP280;51849;47.476;8.084;2022-08-24T05:47:51;96685.28;;;18.08
65180;BMP280;51849;47.476;8.084;2022-08-24T05:50:19;96678.25;;;18.31
65180;BMP280;51849;47.476;8.084;2022-08-24T05:52:45;96676.81;;;18.30
65180;BMP280;51849;47.476;8.084;2022-08-24T05:55:13;96677.59;;;18.38
65180;BMP280;51849;47.476;8.084;2022-08-24T05:57:39;96678.66;;;18.42
65180;BMP280;51849;47.476;8.084;2022-08-24T06:00:06;96674.91;;;18.59
65180;BMP280;51849;47.476;8.084;2022-08-24T06:02:34;96673.63;;;18.80
65180;BMP280;51849;47.476;8.084;2022-08-24T06:05:00;96676.59;;;18.77
65180;BMP280;51849;47.476;8.084;2022-08-24T06:07:26;96676.50;;;18.90
65180;BMP280;51849;47.476;8.084;2022-08-24T06:09:51;96675.34;;;19.06
65180;BMP280;51849;47.476;8.084;2022-08-24T06:12:21;96671.47;;;19.14
65180;BMP280;51849;47.476;8.084;2022-08-24T06:14:46;96673.28;;;19.19
65180;BMP280;51849;47.476;8.084;2022-08-24T06:17:12;96674.91;;;19.30
65180;BMP280;51849;47.476;8.084;2022-08-24T06:19:38;96672.78;;;19.36
65180;BMP280;51849;47.476;8.084;2022-08-24T06:22:09;96672.84;;;19.51
65180;BMP280;51849;47.476;8.084;2022-08-24T06:24:36;96681.66;;;19.61
65180;BMP280;51849;47.476;8.084;2022-08-24T06:27:21;96676.41;;;19.76
65180;BMP280;51849;47.476;8.084;2022-08-24T06:29:52;96672.38;;;19.90
65180;BMP280;51849;47.476;8.084;2022-08-24T06:32:21;96678.91;;;20.04
65180;BMP280;51849;47.476;8.084;2022-08-24T06:34:47;96678.53;;;20.22
65180;BMP280;51849;47.476;8.084;2022-08-24T06:37:14;96677.66;;;20.35
65180;BMP280;51849;47.476;8.084;2022-08-24T06:39:39;96684.53;;;20.45
65180;BMP280;51849;47.476;8.084;2022-08-24T06:42:05;96681.34;;;20.54
65180;BMP280;51849;47.476;8.084;2022-08-24T06:44:34;96675.13;;;20.59
65180;BMP280;51849;47.476;8.084;2022-08-24T06:47:00;96680.81;;;20.63
65180;BMP280;51849;47.476;8.084;2022-08-24T06:49:25;96676.44;;;20.91
65180;BMP280;51849;47.476;8.084;2022-08-24T06:51:52;96685.75;;;21.07
65180;BMP280;51849;47.476;8.084;2022-08-24T06:54:18;96674.28;;;21.04
65180;BMP280;51849;47.476;8.084;2022-08-24T06:56:45;96684.13;;;21.19
65180;BMP280;51849;47.476;8.084;2022-08-24T06:59:13;96681.13;;;21.15
65180;BMP280;51849;47.476;8.084;2022-08-24T07:01:39;96685.63;;;21.37
65180;BMP280;51849;47.476;8.084;2022-08-24T07:04:05;96685.41;;;21.42
65180;BMP280;51849;47.476;8.084;2022-08-24T07:06:30;96683.06;;;21.54
65180;BMP280;51849;47.476;8.084;2022-08-24T07:08:56;96683.38;;;21.58
65180;BMP280;51849;47.476;8.084;2022-08-24T07:11:23;96690.00;;;21.49
65180;BMP280;51849;47.476;8.084;2022-08-24T07:13:49;96686.31;;;21.45
65180;BMP280;51849;47.476;8.084;2022-08-24T07:16:17;96687.28;;;21.57
65180;BMP280;51849;47.476;8.084;2022-08-24T07:18:43;96693.09;;;21.63
65180;BMP280;51849;47.476;8.084;2022-08-24T07:21:09;96693.75;;;21.71
65180;BMP280;51849;47.476;8.084;2022-08-24T07:23:35;96689.19;;;21.88
65180;BMP280;51849;47.476;8.084;2022-08-24T07:26:10;96696.16;;;22.01
65180;BMP280;51849;47.476;8.084;2022-08-24T07:28:37;96706.84;;;21.93
65180;BMP280;51849;47.476;8.084;2022-08-24T07:31:04;96697.75;;;22.04
65180;BMP280;51849;47.476;8.084;2022-08-24T07:33:31;96696.88;;;22.01
65180;BMP280;51849;47.476;8.084;2022-08-24T07:35:57;96692.44;;;22.21
65180;BMP280;51849;47.476;8.084;2022-08-24T07:38:22;96694.13;;;22.33
65180;BMP280;51849;47.476;8.084;2022-08-24T07:40:48;96696.94;;;22.52
65180;BMP280;51849;47.476;8.084;2022-08-24T07:43:19;96690.28;;;22.61
65180;BMP280;51849;47.476;8.084;2022-08-24T07:45:48;96693.25;;;22.65
65180;BMP280;51849;47.476;8.084;2022-08-24T07:48:16;96700.06;;;22.75
65180;BMP280;51849;47.476;8.084;2022-08-24T07:50:42;96700.28;;;22.87
65180;BMP280;51849;47.476;8.084;2022-08-24T07:53:07;96697.31;;;23.00
65180;BMP280;51849;47.476;8.084;2022-08-24T07:55:33;96703.81;;;23.16
65180;BMP280;51849;47.476;8.084;2022-08-24T07:58:00;96707.31;;;23.09
65180;BMP280;51849;47.476;8.084;2022-08-24T08:00:27;96699.91;;;23.17
65180;BMP280;51849;47.476;8.084;2022-08-24T08:02:54;96707.09;;;23.24
65180;BMP280;51849;47.476;8.084;2022-08-24T08:05:22;96715.56;;;23.30
65180;BMP280;51849;47.476;8.084;2022-08-24T08:07:49;96716.97;;;23.31
65180;BMP280;51849;47.476;8.084;2022-08-24T08:10:17;96718.34;;;23.32
65180;BMP280;51849;47.476;8.084;2022-08-24T08:12:44;96714.88;;;23.39
65180;BMP280;51849;47.476;8.084;2022-08-24T08:15:10;96725.34;;;23.54
65180;BMP280;51849;47.476;8.084;2022-08-24T08:17:37;96713.56;;;23.57
65180;BMP280;51849;47.476;8.084;2022-08-24T08:20:07;96717.56;;;23.75
65180;BMP280;51849;47.476;8.084;2022-08-24T08:22:35;96719.69;;;23.77
65180;BMP280;51849;47.476;8.084;2022-08-24T08:25:21;96713.25;;;23.80
65180;BMP280;51849;47.476;8.084;2022-08-24T08:27:46;96718.81;;;23.74
65180;BMP280;51849;47.476;8.084;2022-08-24T08:30:12;96715.34;;;23.81
65180;BMP280;51849;47.476;8.084;2022-08-24T08:32:39;96720.56;;;23.89
65180;BMP280;51849;47.476;8.084;2022-08-24T08:35:05;96717.38;;;24.00
65180;BMP280;51849;47.476;8.084;2022-08-24T08:37:31;96715.22;;;23.98
65180;BMP280;51849;47.476;8.084;2022-08-24T08:39:57;96720.63;;;24.17
65180;BMP280;51849;47.476;8.084;2022-08-24T08:43:00;96721.34;;;24.27
65180;BMP280;51849;47.476;8.084;2022-08-24T09:11:35;96705.19;;;25.41
65180;BMP280;51849;47.476;8.084;2022-08-24T09:22:44;96704.03;;;25.75
65180;BMP280;51849;47.476;8.084;2022-08-24T09:25:27;96703.59;;;25.78
65180;BMP280;51849;47.476;8.084;2022-08-24T09:33:35;96697.31;;;26.16
65180;BMP280;51849;47.476;8.084;2022-08-24T09:36:26;96696.53;;;26.04
65180;BMP280;51849;47.476;8.084;2022-08-24T10:10:16;96678.25;;;26.86
65180;BMP280;51849;47.476;8.084;2022-08-24T10:12:59;96686.63;;;26.92
65180;BMP280;51849;47.476;8.084;2022-08-24T10:15:35;96678.00;;;26.82
65180;BMP280;51849;47.476;8.084;2022-08-24T10:21:12;96671.34;;;27.18
65180;BMP280;51849;47.476;8.084;2022-08-24T10:26:22;96672.66;;;27.17
65180;BMP280;51849;47.476;8.084;2022-08-24T10:29:34;96670.91;;;27.10
65180;BMP280;51849;47.476;8.084;2022-08-24T10:32:24;96664.47;;;27.38
65180;BMP280;51849;47.476;8.084;2022-08-24T10:35:04;96663.81;;;27.14
65180;BMP280;51849;47.476;8.084;2022-08-24T10:49:32;96655.50;;;27.33
65180;BMP280;51849;47.476;8.084;2022-08-24T10:53:11;96663.53;;;27.33
65180;BMP280;51849;47.476;8.084;2022-08-24T10:55:20;96652.72;;;27.54
65180;BMP280;51849;47.476;8.084;2022-08-24T11:00:24;96659.09;;;27.49
65180;BMP280;51849;47.476;8.084;2022-08-24T11:03:08;96656.56;;;27.51
65180;BMP280;51849;47.476;8.084;2022-08-24T11:05:40;96661.22;;;27.39
65180;BMP280;51849;47.476;8.084;2022-08-24T11:08:06;96662.81;;;27.67
65180;BMP280;51849;47.476;8.084;2022-08-24T11:10:37;96662.47;;;27.61
65180;BMP280;51849;47.476;8.084;2022-08-24T11:15:49;96655.44;;;27.79
65180;BMP280;51849;47.476;8.084;2022-08-24T11:18:17;96658.16;;;28.04
65180;BMP280;51849;47.476;8.084;2022-08-24T11:20:46;96673.19;;;28.09
65180;BMP280;51849;47.476;8.084;2022-08-24T11:23:19;96643.34;;;28.03
65180;BMP280;51849;47.476;8.084;2022-08-24T11:26:01;96648.72;;;28.03
65180;BMP280;51849;47.476;8.084;2022-08-24T11:30:57;96647.22;;;28.25
65180;BMP280;51849;47.476;8.084;2022-08-24T11:35:55;96638.41;;;28.11
65180;BMP280;51849;47.476;8.084;2022-08-24T11:38:28;96650.31;;;28.08
65180;BMP280;51849;47.476;8.084;2022-08-24T11:41:10;96642.06;;;28.29
65180;BMP280;51849;47.476;8.084;2022-08-24T11:43:57;96640.91;;;28.32
65180;BMP280;51849;47.476;8.084;2022-08-24T11:49:15;96642.38;;;28.35
65180;BMP280;51849;47.476;8.084;2022-08-24T11:51:51;96647.75;;;28.35
65180;BMP280;51849;47.476;8.084;2022-08-24T11:57:28;96653.31;;;28.64
65180;BMP280;51849;47.476;8.084;2022-08-24T12:10:52;96641.59;;;28.98
65180;BMP280;51849;47.476;8.084;2022-08-24T12:14:06;96639.78;;;29.16
65180;BMP280;51849;47.476;8.084;2022-08-24T12:19:47;96639.13;;;29.02
65180;BMP280;51849;47.476;8.084;2022-08-24T12:22:14;96629.66;;;29.01
65180;BMP280;51849;47.476;8.084;2022-08-24T12:25:02;96631.53;;;28.99
65180;BMP280;51849;47.476;8.084;2022-08-24T12:27:49;96624.41;;;28.90
65180;BMP280;51849;47.476;8.084;2022-08-24T12:30:17;96629.66;;;29.01
65180;BMP280;51849;47.476;8.084;2022-08-24T12:32:54;96632.66;;;29.07
65180;BMP280;51849;47.476;8.084;2022-08-24T12:36:02;96631.75;;;28.89
65180;BMP280;51849;47.476;8.084;2022-08-24T12:38:33;96638.72;;;28.94
65180;BMP280;51849;47.476;8.084;2022-08-24T12:41:31;96630.75;;;28.96
65180;BMP280;51849;47.476;8.084;2022-08-24T12:44:09;96628.19;;;29.12
65180;BMP280;51849;47.476;8.084;2022-08-24T12:46:39;96633.63;;;29.27
65180;BMP280;51849;47.476;8.084;2022-08-24T12:54:40;96623.25;;;29.49
65180;BMP280;51849;47.476;8.084;2022-08-24T13:00:01;96617.78;;;29.47
65180;BMP280;51849;47.476;8.084;2022-08-24T13:02:39;96628.38;;;29.58
65180;BMP280;51849;47.476;8.084;2022-08-24T13:05:19;96625.59;;;29.56
65180;BMP280;51849;47.476;8.084;2022-08-24T13:07:48;96620.44;;;29.60
65180;BMP280;51849;47.476;8.084;2022-08-24T13:10:38;96629.38;;;29.65
65180;BMP280;51849;47.476;8.084;2022-08-24T13:28:43;96605.06;;;29.63
65180;BMP280;51849;47.476;8.084;2022-08-24T13:31:15;96601.19;;;29.66
65180;BMP280;51849;47.476;8.084;2022-08-24T13:36:54;96600.22;;;29.88
65180;BMP280;51849;47.476;8.084;2022-08-24T13:39:32;96605.59;;;29.88
65180;BMP280;51849;47.476;8.084;2022-08-24T13:47:25;96589.59;;;30.21
65180;BMP280;51849;47.476;8.084;2022-08-24T13:58:16;96598.81;;;30.47
65180;BMP280;51849;47.476;8.084;2022-08-24T14:00:56;96593.63;;;30.53
65180;BMP280;51849;47.476;8.084;2022-08-24T14:04:15;96605.69;;;30.50
65180;BMP280;51849;47.476;8.084;2022-08-24T14:06:26;96589.34;;;30.31
65180;BMP280;51849;47.476;8.084;2022-08-24T14:37:28;96592.34;;;30.23
65180;BMP280;51849;47.476;8.084;2022-08-24T14:40:39;96586.81;;;30.19
65180;BMP280;51849;47.476;8.084;2022-08-24T14:51:07;96584.97;;;30.24
65180;BMP280;51849;47.476;8.084;2022-08-24T14:53:47;96582.13;;;30.35
65180;BMP280;51849;47.476;8.084;2022-08-24T14:59:50;96584.97;;;30.08
65180;BMP280;51849;47.476;8.084;2022-08-24T15:02:42;96579.81;;;29.99
65180;BMP280;51849;47.476;8.084;2022-08-24T15:07:57;96577.75;;;29.97
65180;BMP280;51849;47.476;8.084;2022-08-24T15:10:50;96574.19;;;29.93
65180;BMP280;51849;47.476;8.084;2022-08-24T15:15:55;96575.84;;;30.00
65180;BMP280;51849;47.476;8.084;2022-08-24T15:24:01;96579.75;;;29.68
65180;BMP280;51849;47.476;8.084;2022-08-24T15:27:00;96572.66;;;29.74
65180;BMP280;51849;47.476;8.084;2022-08-24T15:29:33;96570.63;;;29.59
65180;BMP280;51849;47.476;8.084;2022-08-24T15:34:55;96575.25;;;29.43
65180;BMP280;51849;47.476;8.084;2022-08-24T15:37:35;96571.88;;;29.43
65180;BMP280;51849;47.476;8.084;2022-08-24T15:40:04;96568.59;;;29.44
65180;BMP280;51849;47.476;8.084;2022-08-24T15:42:46;96571.66;;;29.39
65180;BMP280;51849;47.476;8.084;2022-08-24T15:45:20;96571.47;;;29.48
65180;BMP280;51849;47.476;8.084;2022-08-24T15:47:47;96566.59;;;29.45
65180;BMP280;51849;47.476;8.084;2022-08-24T15:50:25;96563.81;;;29.43
65180;BMP280;51849;47.476;8.084;2022-08-24T15:53:02;96569.03;;;29.25
65180;BMP280;51849;47.476;8.084;2022-08-24T15:58:20;96566.13;;;29.21
65180;BMP280;51849;47.476;8.084;2022-08-24T16:01:20;96576.59;;;29.29
65180;BMP280;51849;47.476;8.084;2022-08-24T16:04:35;96571.13;;;29.13
65180;BMP280;51849;47.476;8.084;2022-08-24T16:06:52;96576.81;;;29.06
65180;BMP280;51849;47.476;8.084;2022-08-24T16:12:02;96567.75;;;28.99
65180;BMP280;51849;47.476;8.084;2022-08-24T16:14:33;96567.84;;;29.01
65180;BMP280;51849;47.476;8.084;2022-08-24T16:17:17;96569.53;;;28.95
65180;BMP280;51849;47.476;8.084;2022-08-24T16:19:50;96569.25;;;28.89
65180;BMP280;51849;47.476;8.084;2022-08-24T16:22:34;96565.00;;;28.97
65180;BMP280;51849;47.476;8.084;2022-08-24T16:25:17;96568.56;;;28.88
65180;BMP280;51849;47.476;8.084;2022-08-24T16:27:59;96572.03;;;28.77
65180;BMP280;51849;47.476;8.084;2022-08-24T16:30:55;96574.16;;;28.65
65180;BMP280;51849;47.476;8.084;2022-08-24T16:35:56;96573.91;;;28.61
65180;BMP280;51849;47.476;8.084;2022-08-24T16:38:27;96575.34;;;28.62
65180;BMP280;51849;47.476;8.084;2022-08-24T16:41:05;96583.19;;;28.58
65180;BMP280;51849;47.476;8.084;2022-08-24T16:43:34;96579.97;;;28.48
65180;BMP280;51849;47.476;8.084;2022-08-24T16:46:00;96580.75;;;28.51
65180;BMP280;51849;47.476;8.084;2022-08-24T16:48:27;96587.75;;;28.56
65180;BMP280;51849;47.476;8.084;2022-08-24T16:50:52;96576.59;;;28.48
65180;BMP280;51849;47.476;8.084;2022-08-24T16:53:21;96580.22;;;28.27
65180;BMP280;51849;47.476;8.084;2022-08-24T16:55:50;96581.63;;;28.28
65180;BMP280;51849;47.476;8.084;2022-08-24T16:58:16;96590.88;;;28.25
65180;BMP280;51849;47.476;8.084;2022-08-24T17:00:42;96585.28;;;28.21
65180;BMP280;51849;47.476;8.084;2022-08-24T17:03:11;96580.78;;;28.12
65180;BMP280;51849;47.476;8.084;2022-08-24T17:05:38;96589.06;;;28.16
65180;BMP280;51849;47.476;8.084;2022-08-24T17:08:04;96583.84;;;28.07
65180;BMP280;51849;47.476;8.084;2022-08-24T17:10:30;96581.31;;;27.97
65180;BMP280;51849;47.476;8.084;2022-08-24T17:12:56;96587.28;;;27.96
65180;BMP280;51849;47.476;8.084;2022-08-24T17:15:25;96582.06;;;27.86
65180;BMP280;51849;47.476;8.084;2022-08-24T17:17:55;96593.28;;;27.83
65180;BMP280;51849;47.476;8.084;2022-08-24T17:20:23;96585.72;;;27.79
65180;BMP280;51849;47.476;8.084;2022-08-24T17:22:49;96590.53;;;27.69
65180;BMP280;51849;47.476;8.084;2022-08-24T17:25:18;96588.72;;;27.60
65180;BMP280;51849;47.476;8.084;2022-08-24T17:27:44;96590.56;;;27.58
65180;BMP280;51849;47.476;8.084;2022-08-24T17:30:10;96597.09;;;27.55
65180;BMP280;51849;47.476;8.084;2022-08-24T17:32:38;96596.66;;;27.47
65180;BMP280;51849;47.476;8.084;2022-08-24T17:35:04;96600.88;;;27.38
65180;BMP280;51849;47.476;8.084;2022-08-24T17:37:29;96595.28;;;27.34
65180;BMP280;51849;47.476;8.084;2022-08-24T17:39:57;96605.78;;;27.30
65180;BMP280;51849;47.476;8.084;2022-08-24T17:42:23;96602.06;;;27.24
65180;BMP280;51849;47.476;8.084;2022-08-24T17:44:49;96605.31;;;27.22
65180;BMP280;51849;47.476;8.084;2022-08-24T17:47:15;96598.91;;;27.16
65180;BMP280;51849;47.476;8.084;2022-08-24T17:49:42;96602.06;;;27.12
65180;BMP280;51849;47.476;8.084;2022-08-24T17:52:11;96608.84;;;27.02
65180;BMP280;51849;47.476;8.084;2022-08-24T17:54:37;96608.34;;;26.94
65180;BMP280;51849;47.476;8.084;2022-08-24T17:57:02;96608.00;;;26.88
65180;BMP280;51849;47.476;8.084;2022-08-24T17:59:34;96613.97;;;26.86
65180;BMP280;51849;47.476;8.084;2022-08-24T18:02:06;96613.47;;;26.78
65180;BMP280;51849;47.476;8.084;2022-08-24T18:04:34;96606.97;;;26.70
65180;BMP280;51849;47.476;8.084;2022-08-24T18:07:07;96614.50;;;26.62
65180;BMP280;51849;47.476;8.084;2022-08-24T18:09:35;96620.31;;;26.58
65180;BMP280;51849;47.476;8.084;2022-08-24T18:12:05;96622.53;;;26.50